Terminal Aerodrome Forecast
Issued by NWS

Home | Current Version | Previous Version | Text Only | Print | Product List | Glossary Off
Versions: 1 2 3 4 5 6 7 8 9 10 11 12 13 14 15 16 17 18 19 20 21 22 23 24 25 26 27 28 29 30 31 32 33 34 35 36

000
FTUS43 KLOT 311523 AAD
TAFMDW
TAF AMD
KMDW 311523Z 3115/0112 36011KT P6SM FEW010 BKN018
     FM311900 06009KT P6SM SCT040
     FM010000 08005KT P6SM SKC
     FM010400 27005KT P6SM SKC
     FM010900 02006KT P6SM SCT250=

USA.gov is the U.S. government's official web portal to all federal, state and local government web resources and services.